Главная страница
METAR-TAF:

METAR-TAF

Аэропорты :

Фуншал, Мадейра, Португалия

Криштиану Роналду

широта: 32-41-52N, долгота: 016-46-28W, высота над уровнем моря: 59 м

Текущие метеонаблюдения

Эта сводка был подготовлена 11 минут назад, в 12:00 UTC
Ветер 14 Узел от северо-восточный, изменяющийся между северный и восточно-северо-восточный
Температура 18°C
Влажность 68%
Давление 1031 hPa
Видимость 10 км и более
небольшая облачность на высоте 1600 фута

METAR: LPMA 221200Z 04014KT 010V070 9999 FEW016 18/12 Q1031

Время: 12:11 (12:11 UTC)

Прогноз

Эта сводка был подготовлена 1 час и 11 минут назад, в 11:00 UTC
Прогноз действительный с 22-го 12 UTC до 23-го 12 UTC
Ветер 13 Узел от северо-северо-восточный
Видимость 10 км и более
Отдельные облака на высоте 1600 фута
изменения
С 22-го 16 UTC до 22-го 18 UTC
Отдельные облака на высоте 1500 фута
Рассеянная облачность на высоте 3000 фута

TAF: LPMA 221100Z 2212/2312 02013KT 9999 SCT016 BECMG 2216/2218 SCT015 BKN030

Метеонаблюдения и прогнозы для более 4000 аэропортов (сводки METAR и TAF).

Имеющиеся станции представлены на карте желтыми и красными точками.

Чтобы увидеть название станции, наведите на нее мышь.

Затем щелкните, чтобы увидеть метеонаблюдения и метеопрогнозы.

Управление картой: чтобы увеличить масштаб, щелкните зеленые кнопки с черным крестиком; чтобы уменьшить масштаб, щелкните зеленую кнопку с тире; для просмотра соседних карт щелкайте зеленые стрелки.


METAR-TAF: